PWSweather.com
Personal Weather Stations
Station Observations

CefaluIT

Lat: 38.0324, Lon: 14.02837

Elevation: 92

Station Type: LACROSSE WS 2350

http://www.meteocefalu.altervista.org

Latest ConditionsUpdated 3:50:07 PM GMT+01:01 Thursday, Nov 14, 2019
Currently Today's Max Today's Min Today's Average
Temperature 61.5°F16.4°C 64.2°F17.9°C 57.0°F13.9°C 60.8°F16.0°C
Dew Point 50.5°F10.3°C 50.9°F10.5°C 40.5°F4.7°C 45.4°F7.4°C
Winds 1.1 mph ENE1.8 kmh ENE 10.5 mph -16.9 kmh - - 2.3 mph 3.7 kmh
Wind Gusts 1.1 mph1.8 kmh 11.6 mph18.7 kmh - -
Humidity 67% 68% 50% 57%
Pressure 29.63 in1003.4 mb 29.70 in1005.8 mb 29.63 in1003.4 mb -
Hour Temp Dew Point Humidity Winds Wind Gusts Pressure Precip Precip Rate Daily Precip Total
03:50 PM 61.5°F16.4°C 50.5°F10.3°C 67% 1.1 mph ENE1.8 kmh ENE 1.1 mph1.8 kmh 29.63 in1003.4 mb - 0.00 in0.0 mm 0.00 in0.0 mm
03:40 PM 61.5°F16.4°C 50.9°F10.5°C 68% Calm Calm -- 29.64 in1003.7 mb - 0.00 in0.0 mm 0.00 in0.0 mm
03:30 PM 61.5°F16.4°C 50.5°F10.3°C 67% Calm Calm -- 29.64 in1003.7 mb - 0.00 in0.0 mm 0.00 in0.0 mm
03:20 PM 61.5°F16.4°C 50.5°F10.3°C 67% 2.3 mph SSE3.7 kmh SSE 3.6 mph5.8 kmh 29.64 in1003.7 mb - 0.00 in0.0 mm 0.00 in0.0 mm
03:10 PM 62.1°F16.7°C 50.2°F10.1°C 65% 1.7 mph S2.7 kmh S 2.0 mph3.2 kmh 29.64 in1003.7 mb - 0.00 in0.0 mm 0.00 in0.0 mm
03:00 PM 62.1°F16.7°C 49.7°F9.8°C 64% Calm Calm -- 29.64 in1003.7 mb - 0.00 in0.0 mm 0.00 in0.0 mm
02:50 PM 62.4°F16.9°C 49.7°F9.8°C 63% 3.5 mph S5.6 kmh S 4.7 mph7.6 kmh 29.65 in1004.1 mb - 0.00 in0.0 mm 0.00 in0.0 mm
02:40 PM 63.5°F17.5°C 50.2°F10.1°C 62% 2.9 mph SSW4.7 kmh SSW 2.9 mph4.7 kmh 29.65 in1004.1 mb - 0.00 in0.0 mm 0.00 in0.0 mm
02:30 PM 64.0°F17.8°C 49.9°F9.9°C 60% Calm Calm -- 29.64 in1003.7 mb - 0.00 in0.0 mm 0.00 in0.0 mm
02:20 PM 64.0°F17.8°C 49.4°F9.7°C 59% 1.1 mph NE1.8 kmh NE 1.3 mph2.1 kmh 29.64 in1003.7 mb - 0.00 in0.0 mm 0.00 in0.0 mm
02:10 PM 64.0°F17.8°C 49.4°F9.7°C 59% 1.6 mph ENE2.6 kmh ENE 1.8 mph2.9 kmh 29.64 in1003.7 mb - 0.00 in0.0 mm 0.00 in0.0 mm
02:00 PM 64.2°F17.9°C 49.1°F9.5°C 58% Calm Calm -- 29.64 in1003.7 mb - 0.00 in0.0 mm 0.00 in0.0 mm
01:50 PM 64.2°F17.9°C 49.1°F9.5°C 58% Calm Calm -- 29.64 in1003.7 mb - 0.00 in0.0 mm 0.00 in0.0 mm
12:10 PM 64.0°F17.8°C 48.0°F8.9°C 56% 2.0 mph NNE3.2 kmh NNE 2.5 mph4.0 kmh 29.64 in1003.7 mb - 0.00 in0.0 mm 0.00 in0.0 mm
11:20 AM 64.0°F17.8°C 48.5°F9.2°C 57% 4.5 mph NE7.2 kmh NE 4.5 mph7.2 kmh 29.65 in1004.1 mb - 0.00 in0.0 mm 0.00 in0.0 mm
11:10 AM 64.0°F17.8°C 48.0°F8.9°C 56% 5.8 mph NE9.3 kmh NE 6.3 mph10.1 kmh 29.66 in1004.4 mb - 0.00 in0.0 mm 0.00 in0.0 mm
11:00 AM 64.2°F17.9°C 48.2°F9.0°C 56% 2.5 mph ENE4.0 kmh ENE 2.5 mph4.0 kmh 29.66 in1004.4 mb - 0.00 in0.0 mm 0.00 in0.0 mm
10:50 AM 64.0°F17.8°C 48.0°F8.9°C 56% 3.0 mph NNE4.8 kmh NNE 3.6 mph5.8 kmh 29.66 in1004.4 mb - 0.00 in0.0 mm 0.00 in0.0 mm
10:40 AM 64.2°F17.9°C 47.7°F8.7°C 55% 0.9 mph 1.4 kmh 1.1 mph1.8 kmh 29.66 in1004.4 mb - 0.00 in0.0 mm 0.00 in0.0 mm
10:30 AM 64.0°F17.8°C 48.0°F8.9°C 56% 2.2 mph NE3.5 kmh NE 2.2 mph3.5 kmh 29.67 in1004.7 mb - 0.00 in0.0 mm 0.00 in0.0 mm
10:20 AM 63.9°F17.7°C 47.9°F8.8°C 56% 0.4 mph SSE0.6 kmh SSE 1.8 mph2.9 kmh 29.67 in1004.7 mb - 0.00 in0.0 mm 0.00 in0.0 mm
10:10 AM 63.7°F17.6°C 47.7°F8.7°C 56% 4.1 mph NNE6.6 kmh NNE 4.5 mph7.2 kmh 29.66 in1004.4 mb - 0.00 in0.0 mm 0.00 in0.0 mm
10:00 AM 63.8°F17.7°C 47.8°F8.8°C 56% Calm Calm -- 29.67 in1004.7 mb - 0.00 in0.0 mm 0.00 in0.0 mm
09:50 AM 64.0°F17.8°C 48.5°F9.2°C 57% 2.0 mph SW3.2 kmh SW 2.0 mph3.2 kmh 29.66 in1004.4 mb - 0.00 in0.0 mm 0.00 in0.0 mm
09:40 AM 63.5°F17.5°C 48.5°F9.2°C 58% 0.4 mph E0.6 kmh E -- 29.66 in1004.4 mb - 0.00 in0.0 mm 0.00 in0.0 mm
09:30 AM 62.4°F16.9°C 47.9°F8.8°C 59% 1.3 mph S2.1 kmh S 1.6 mph2.6 kmh 29.65 in1004.1 mb - 0.00 in0.0 mm 0.00 in0.0 mm
09:20 AM 62.2°F16.8°C 47.7°F8.7°C 59% Calm Calm -- 29.65 in1004.1 mb - 0.00 in0.0 mm 0.00 in0.0 mm
09:10 AM 62.2°F16.8°C 46.8°F8.2°C 57% Calm Calm -- 29.65 in1004.1 mb - 0.00 in0.0 mm 0.00 in0.0 mm
09:00 AM 61.9°F16.6°C 46.0°F7.8°C 56% 2.5 mph SW4.0 kmh SW 2.5 mph4.0 kmh 29.66 in1004.4 mb - 0.00 in0.0 mm 0.00 in0.0 mm
08:50 AM 61.3°F16.3°C 46.0°F7.8°C 57% 2.3 mph S3.7 kmh S 2.5 mph4.0 kmh 29.66 in1004.4 mb - 0.00 in0.0 mm 0.00 in0.0 mm
08:40 AM 61.0°F16.1°C 45.2°F7.3°C 56% 2.8 mph S4.5 kmh S 3.1 mph5.0 kmh 29.66 in1004.4 mb - 0.00 in0.0 mm 0.00 in0.0 mm
08:30 AM 60.4°F15.8°C 45.1°F7.3°C 57% 4.2 mph SSE6.8 kmh SSE 4.2 mph6.8 kmh 29.66 in1004.4 mb - 0.00 in0.0 mm 0.00 in0.0 mm
08:20 AM 60.6°F15.9°C 45.3°F7.4°C 57% 2.9 mph S4.7 kmh S 3.1 mph5.0 kmh 29.65 in1004.1 mb - 0.00 in0.0 mm 0.00 in0.0 mm
08:10 AM 60.4°F15.8°C 45.1°F7.3°C 57% 4.7 mph SSW7.6 kmh SSW 5.1 mph8.2 kmh 29.66 in1004.4 mb - 0.00 in0.0 mm 0.00 in0.0 mm
08:00 AM 60.1°F15.6°C 45.2°F7.3°C 58% 2.7 mph S4.3 kmh S 2.7 mph4.3 kmh 29.65 in1004.1 mb - 0.00 in0.0 mm 0.00 in0.0 mm
07:50 AM 59.9°F15.5°C 45.1°F7.3°C 58% 3.4 mph SE5.5 kmh SE 3.6 mph5.8 kmh 29.65 in1004.1 mb - 0.00 in0.0 mm 0.00 in0.0 mm
07:40 AM 59.7°F15.4°C 44.9°F7.2°C 58% 3.3 mph SE5.3 kmh SE 3.8 mph6.1 kmh 29.65 in1004.1 mb - 0.00 in0.0 mm 0.00 in0.0 mm
07:30 AM 59.7°F15.4°C 44.9°F7.2°C 58% Calm Calm -- 29.65 in1004.1 mb - 0.00 in0.0 mm 0.00 in0.0 mm
07:20 AM 59.4°F15.2°C 44.6°F7.0°C 58% 1.2 mph S1.9 kmh S 1.8 mph2.9 kmh 29.65 in1004.1 mb - 0.00 in0.0 mm 0.00 in0.0 mm
07:10 AM 59.0°F15.0°C 44.2°F6.8°C 58% 2.3 mph SSE3.7 kmh SSE 2.2 mph3.5 kmh 29.64 in1003.7 mb - 0.00 in0.0 mm 0.00 in0.0 mm
07:00 AM 58.8°F14.9°C 44.1°F6.7°C 58% 4.4 mph SSE7.1 kmh SSE 4.5 mph7.2 kmh 29.64 in1003.7 mb - 0.00 in0.0 mm 0.00 in0.0 mm
06:50 AM 58.7°F14.8°C 44.0°F6.7°C 58% 3.1 mph S5.0 kmh S 3.1 mph5.0 kmh 29.64 in1003.7 mb - 0.00 in0.0 mm 0.00 in0.0 mm
06:40 AM 58.3°F14.6°C 43.6°F6.4°C 58% 4.5 mph SE7.2 kmh SE 5.4 mph8.7 kmh 29.63 in1003.4 mb - 0.00 in0.0 mm 0.00 in0.0 mm
06:30 AM 58.6°F14.8°C 44.3°F6.8°C 59% 2.2 mph S3.5 kmh S 2.2 mph3.5 kmh 29.64 in1003.7 mb - 0.00 in0.0 mm 0.00 in0.0 mm
06:20 AM 58.5°F14.7°C 43.8°F6.6°C 58% 1.0 mph S1.6 kmh S 2.2 mph3.5 kmh 29.64 in1003.7 mb - 0.00 in0.0 mm 0.00 in0.0 mm
06:10 AM 58.3°F14.6°C 44.0°F6.7°C 59% 3.0 mph SSE4.8 kmh SSE 2.5 mph4.0 kmh 29.64 in1003.7 mb - 0.00 in0.0 mm 0.00 in0.0 mm
06:00 AM 57.9°F14.4°C 43.7°F6.5°C 59% 3.4 mph S5.5 kmh S 3.4 mph5.5 kmh 29.63 in1003.4 mb - 0.00 in0.0 mm 0.00 in0.0 mm
05:50 AM 58.3°F14.6°C 43.6°F6.4°C 58% 2.0 mph SSE3.2 kmh SSE 2.0 mph3.2 kmh 29.63 in1003.4 mb - 0.00 in0.0 mm 0.00 in0.0 mm
05:40 AM 57.9°F14.4°C 43.7°F6.5°C 59% 2.7 mph SSE4.3 kmh SSE 2.0 mph3.2 kmh 29.64 in1003.7 mb - 0.00 in0.0 mm 0.00 in0.0 mm
05:30 AM 57.9°F14.4°C 43.7°F6.5°C 59% 4.0 mph SSE6.4 kmh SSE 4.0 mph6.4 kmh 29.64 in1003.7 mb - 0.00 in0.0 mm 0.00 in0.0 mm
05:20 AM 57.8°F14.3°C 43.6°F6.4°C 59% 2.5 mph S4.0 kmh S 3.6 mph5.8 kmh 29.63 in1003.4 mb - 0.00 in0.0 mm 0.00 in0.0 mm
05:10 AM 58.3°F14.6°C 43.1°F6.2°C 57% 1.6 mph SSE2.6 kmh SSE 1.6 mph2.6 kmh 29.64 in1003.7 mb - 0.00 in0.0 mm 0.00 in0.0 mm
05:00 AM 58.8°F14.9°C 43.6°F6.4°C 57% 3.6 mph S5.8 kmh S 3.6 mph5.8 kmh 29.63 in1003.4 mb - 0.00 in0.0 mm 0.00 in0.0 mm
04:50 AM 59.1°F15.1°C 43.8°F6.6°C 57% 2.8 mph S4.5 kmh S 2.9 mph4.7 kmh 29.64 in1003.7 mb - 0.00 in0.0 mm 0.00 in0.0 mm
04:40 AM 58.3°F14.6°C 43.1°F6.2°C 57% 1.1 mph S1.8 kmh S 2.5 mph4.0 kmh 29.64 in1003.7 mb - 0.00 in0.0 mm 0.00 in0.0 mm
04:30 AM 58.1°F14.5°C 42.9°F6.1°C 57% 2.2 mph SSE3.5 kmh SSE 2.2 mph3.5 kmh 29.64 in1003.7 mb - 0.00 in0.0 mm 0.00 in0.0 mm
04:20 AM 59.2°F15.1°C 43.5°F6.4°C 56% 1.6 mph S2.6 kmh S 3.6 mph5.8 kmh 29.64 in1003.7 mb - 0.00 in0.0 mm 0.00 in0.0 mm
04:10 AM 59.2°F15.1°C 43.5°F6.4°C 56% 1.0 mph SSW1.6 kmh SSW 1.3 mph2.1 kmh 29.64 in1003.7 mb - 0.00 in0.0 mm 0.00 in0.0 mm
04:00 AM 59.0°F15.0°C 43.8°F6.6°C 57% 2.6 mph SSE4.2 kmh SSE 2.9 mph4.7 kmh 29.64 in1003.7 mb - 0.00 in0.0 mm 0.00 in0.0 mm
03:50 AM 58.8°F14.9°C 43.6°F6.4°C 57% 4.6 mph S7.4 kmh S 4.7 mph7.6 kmh 29.64 in1003.7 mb - 0.00 in0.0 mm 0.00 in0.0 mm
03:40 AM 59.2°F15.1°C 43.5°F6.4°C 56% 1.5 mph SSE2.4 kmh SSE 2.0 mph3.2 kmh 29.64 in1003.7 mb - 0.00 in0.0 mm 0.00 in0.0 mm
03:30 AM 59.5°F15.3°C 43.3°F6.3°C 55% Calm Calm -- 29.64 in1003.7 mb - 0.00 in0.0 mm 0.00 in0.0 mm
03:20 AM 59.5°F15.3°C 42.9°F6.1°C 54% 1.7 mph S2.7 kmh S 4.5 mph7.2 kmh 29.65 in1004.1 mb - 0.00 in0.0 mm 0.00 in0.0 mm
03:10 AM 59.4°F15.2°C 42.7°F5.9°C 54% Calm Calm -- 29.65 in1004.1 mb - 0.00 in0.0 mm 0.00 in0.0 mm
03:00 AM 59.9°F15.5°C 42.7°F5.9°C 53% Calm Calm -- 29.65 in1004.1 mb - 0.00 in0.0 mm 0.00 in0.0 mm
02:50 AM 60.1°F15.6°C 42.4°F5.8°C 52% Calm Calm -- 29.65 in1004.1 mb - 0.00 in0.0 mm 0.00 in0.0 mm
02:40 AM 60.1°F15.6°C 42.9°F6.1°C 53% 2.4 mph ENE3.9 kmh ENE 1.8 mph2.9 kmh 29.65 in1004.1 mb - 0.00 in0.0 mm 0.00 in0.0 mm
02:30 AM 60.6°F15.9°C 43.4°F6.3°C 53% 1.0 mph S1.6 kmh S 1.1 mph1.8 kmh 29.66 in1004.4 mb - 0.00 in0.0 mm 0.00 in0.0 mm
02:20 AM 61.3°F16.3°C 43.6°F6.4°C 52% 4.0 mph SSW6.4 kmh SSW -- 29.67 in1004.7 mb - 0.00 in0.0 mm 0.00 in0.0 mm
02:10 AM 61.5°F16.4°C 43.7°F6.5°C 52% 0.8 mph ENE1.3 kmh ENE 1.6 mph2.6 kmh 29.67 in1004.7 mb - 0.00 in0.0 mm 0.00 in0.0 mm
02:00 AM 61.9°F16.6°C 44.1°F6.7°C 52% 1.4 mph SSE2.3 kmh SSE 0.9 mph1.4 kmh 29.67 in1004.7 mb - 0.00 in0.0 mm 0.00 in0.0 mm
01:50 AM 61.7°F16.5°C 43.4°F6.3°C 51% 0.7 mph SE1.1 kmh SE 3.4 mph5.5 kmh 29.67 in1004.7 mb - 0.00 in0.0 mm 0.00 in0.0 mm
01:40 AM 61.9°F16.6°C 43.5°F6.4°C 51% 2.6 mph SSW4.2 kmh SSW 2.7 mph4.3 kmh 29.68 in1005.1 mb - 0.00 in0.0 mm 0.00 in0.0 mm
01:30 AM 62.1°F16.7°C 43.2°F6.2°C 50% 4.8 mph S7.7 kmh S 3.8 mph6.1 kmh 29.68 in1005.1 mb - 0.00 in0.0 mm 0.00 in0.0 mm
01:20 AM 61.6°F16.4°C 43.2°F6.2°C 51% 10.5 mph S16.9 kmh S 11.6 mph18.7 kmh 29.68 in1005.1 mb - 0.00 in0.0 mm 0.00 in0.0 mm
01:10 AM 61.2°F16.2°C 43.4°F6.3°C 52% 9.0 mph S14.5 kmh S 9.4 mph15.1 kmh 29.68 in1005.1 mb - 0.00 in0.0 mm 0.00 in0.0 mm
01:00 AM 60.4°F15.8°C 43.2°F6.2°C 53% 8.8 mph SSW14.2 kmh SSW 9.2 mph14.8 kmh 29.68 in1005.1 mb - 0.00 in0.0 mm 0.00 in0.0 mm
12:50 AM 60.6°F15.9°C 42.9°F6.1°C 52% 8.0 mph SSW12.9 kmh SSW 8.0 mph12.9 kmh 29.68 in1005.1 mb - 0.00 in0.0 mm 0.00 in0.0 mm
12:40 AM 59.9°F15.5°C 43.2°F6.2°C 54% 5.4 mph SSW8.7 kmh SSW 5.4 mph8.7 kmh 29.68 in1005.1 mb - 0.00 in0.0 mm 0.00 in0.0 mm
12:30 AM 57.4°F14.1°C 41.8°F5.4°C 56% 2.2 mph S3.5 kmh S 2.2 mph3.5 kmh 29.68 in1005.1 mb - 0.00 in0.0 mm 0.00 in0.0 mm
12:20 AM 57.0°F13.9°C 40.5°F4.7°C 54% Calm Calm -- 29.69 in1005.4 mb - 0.00 in0.0 mm 0.00 in0.0 mm
12:10 AM 57.9°F14.4°C 40.9°F4.9°C 53% Calm Calm -- 29.69 in1005.4 mb - 0.00 in0.0 mm 0.00 in0.0 mm
12:00 AM 59.5°F15.3°C 41.4°F5.2°C 51% 0.1 mph E0.2 kmh E -- 29.70 in1005.8 mb - 0.00 in0.0 mm 0.00 in0.0 mm